Time;durP1;ratioP1;P1;durP2;ratioP2;P2;SDS_P1;SDS_P2;PMS_P1;PMS_P2;Temp;Humidity;BMP_temperature;BMP_pressure;BME280_temperature;BME280_humidity;BME280_pressure;Samples;Min_cycle;Max_cycle;Signal;HPM_P1;HPM_P2
2023/01/08 00:00:23;;;;;;;12.33;4.92;;;;;;;-16.73;100.00;101927.75;1695864;83;20999;-57
2023/01/08 00:02:51;;;;;;;11.45;4.83;;;;;;;-16.76;100.00;101936.86;1692200;83;21023;-61
2023/01/08 00:05:20;;;;;;;12.78;4.62;;;;;;;-16.78;100.00;101940.96;1693833;83;21031;-57
2023/01/08 00:07:47;;;;;;;15.45;5.35;;;;;;;-16.83;100.00;101947.52;1694675;83;21078;-57
2023/01/08 00:10:15;;;;;;;13.60;5.70;;;;;;;-16.86;100.00;101943.71;1697424;83;21158;-58
2023/01/08 00:12:42;;;;;;;16.67;6.20;;;;;;;-16.90;100.00;101941.56;1693800;83;20920;-60
2023/01/08 00:15:11;;;;;;;14.98;5.80;;;;;;;-16.92;100.00;101942.36;1694606;83;21054;-62
2023/01/08 00:17:40;;;;;;;11.18;5.17;;;;;;;-16.95;100.00;101940.64;1692985;83;21075;-58
2023/01/08 00:20:09;;;;;;;17.50;6.03;;;;;;;-16.96;100.00;101942.70;1695400;83;20917;-58
2023/01/08 00:22:37;;;;;;;14.45;5.35;;;;;;;-16.98;100.00;101945.55;1691051;84;21175;-59
2023/01/08 00:25:05;;;;;;;11.00;4.25;;;;;;;-16.99;100.00;101947.63;1691270;83;21517;-60
2023/01/08 00:27:33;;;;;;;17.60;7.20;;;;;;;-17.01;100.00;101951.31;1692166;83;21821;-58
2023/01/08 00:30:00;;;;;;;11.80;4.55;;;;;;;-17.02;100.00;101962.10;1680224;84;21042;-58
2023/01/08 00:32:27;;;;;;;15.98;5.92;;;;;;;-17.02;100.00;101958.77;1684214;83;21073;-56
2023/01/08 00:34:55;;;;;;;13.32;5.70;;;;;;;-17.03;100.00;101960.84;1686878;83;21083;-58
2023/01/08 00:37:22;;;;;;;14.95;6.45;;;;;;;-17.02;100.00;101961.27;1685116;84;22254;-61
2023/01/08 00:39:50;;;;;;;13.28;6.97;;;;;;;-17.02;100.00;101962.51;1679701;85;21136;-59
2023/01/08 00:42:17;;;;;;;9.95;4.42;;;;;;;-17.04;100.00;101956.66;1680929;85;21040;-56
2023/01/08 00:44:45;;;;;;;15.78;5.37;;;;;;;-17.04;100.00;101960.00;1678604;85;21049;-60
2023/01/08 00:47:13;;;;;;;15.45;5.12;;;;;;;-17.05;100.00;101964.52;1664404;85;21805;-58
2023/01/08 00:49:40;;;;;;;15.23;6.37;;;;;;;-17.05;100.00;101964.93;1626184;87;20903;-58
2023/01/08 00:52:09;;;;;;;15.68;7.00;;;;;;;-17.06;100.00;101967.83;1675647;85;21444;-58
2023/01/08 00:54:36;;;;;;;15.58;6.20;;;;;;;-17.07;100.00;101968.66;1674480;85;21084;-59
2023/01/08 00:57:04;;;;;;;13.10;5.85;;;;;;;-17.08;100.00;101975.70;1674713;85;22092;-58
2023/01/08 00:59:34;;;;;;;13.20;6.28;;;;;;;-17.07;100.00;101972.39;1672733;84;21514;-58
2023/01/08 01:02:01;;;;;;;11.75;4.97;;;;;;;-17.07;100.00;101978.63;1673279;85;21546;-57
2023/01/08 01:04:29;;;;;;;16.95;6.97;;;;;;;-17.07;100.00;101976.13;1672382;85;21025;-58
2023/01/08 01:06:56;;;;;;;17.00;6.10;;;;;;;-17.07;100.00;101970.31;1672910;83;21620;-57
2023/01/08 01:09:23;;;;;;;15.53;5.95;;;;;;;-17.09;100.00;101972.75;1675987;85;21024;-58
2023/01/08 01:11:52;;;;;;;14.20;5.35;;;;;;;-17.10;100.00;101972.73;1674498;84;21254;-57
2023/01/08 01:14:20;;;;;;;16.93;6.55;;;;;;;-17.14;100.00;101968.08;1677950;85;21133;-62
2023/01/08 01:16:47;;;;;;;15.38;6.62;;;;;;;-17.14;100.00;101968.08;1674216;85;21105;-58
2023/01/08 01:19:16;;;;;;;15.15;6.28;;;;;;;-17.15;100.00;101965.16;1673384;85;21090;-59
2023/01/08 01:21:43;;;;;;;13.72;5.67;;;;;;;-17.17;100.00;101971.74;1672541;85;21921;-57
2023/01/08 01:24:11;;;;;;;15.10;6.10;;;;;;;-17.17;100.00;101969.66;1660266;86;21112;-59
2023/01/08 01:26:38;;;;;;;18.37;6.90;;;;;;;-17.18;100.00;101968.83;1625142;87;21055;-57
2023/01/08 01:29:06;;;;;;;19.50;6.83;;;;;;;-17.19;100.00;101969.64;1670908;85;21072;-58
2023/01/08 01:31:33;;;;;;;16.32;7.33;;;;;;;-17.19;100.00;101968.39;1676064;85;20997;-57
2023/01/08 01:34:01;;;;;;;16.97;7.03;;;;;;;-17.20;100.00;101965.44;1673685;85;21074;-57
2023/01/08 01:36:29;;;;;;;17.45;6.85;;;;;;;-17.21;100.00;101966.26;1674287;85;21155;-61
2023/01/08 01:38:57;;;;;;;16.05;6.45;;;;;;;-17.20;100.00;101966.69;1667056;84;21164;-61
2023/01/08 01:41:37;;;;;;;15.28;6.92;;;;;;;-17.22;100.00;101977.88;1657841;84;20993;-57
2023/01/08 01:44:41;;;;;;;18.65;6.67;;;;;;;-17.22;100.00;101975.80;1657855;86;21082;-62
2023/01/08 01:47:37;;;;;;;14.53;6.33;;;;;;;-17.23;100.00;101968.73;1699519;83;21166;-58
2023/01/08 01:50:15;;;;;;;17.57;5.92;;;;;;;-17.24;100.00;101970.77;1699805;83;21307;-56
2023/01/08 01:52:49;;;;;;;19.95;7.35;;;;;;;-17.24;100.00;101973.25;1696313;82;21060;-56
2023/01/08 01:55:16;;;;;;;16.70;7.35;;;;;;;-17.24;100.00;101982.39;1676343;84;21110;-57
2023/01/08 01:57:49;;;;;;;12.75;5.37;;;;;;;-17.25;100.00;101980.30;1679893;85;22474;-56
2023/01/08 02:00:17;;;;;;;14.23;5.42;;;;;;;-17.25;100.00;101979.47;1678659;85;21062;-56
2023/01/08 02:02:44;;;;;;;15.65;6.08;;;;;;;-17.25;100.00;101980.30;1682431;84;21216;-57
2023/01/08 02:05:11;;;;;;;15.53;5.30;;;;;;;-17.26;100.00;101976.55;1682932;83;21490;-57
2023/01/08 02:07:46;;;;;;;13.78;5.62;;;;;;;-17.26;100.00;101975.30;1681919;84;21291;-58
2023/01/08 02:10:22;;;;;;;16.25;5.87;;;;;;;-17.26;100.00;101975.30;1686243;83;20996;-57
2023/01/08 02:13:10;;;;;;;15.63;6.62;;;;;;;-17.30;100.00;101977.28;1679690;84;21000;-58
2023/01/08 02:15:52;;;;;;;15.10;6.75;;;;;;;-17.33;100.00;101979.29;1683829;83;21235;-59
2023/01/08 02:18:26;;;;;;;14.73;6.17;;;;;;;-17.34;100.00;101981.36;1682629;84;21578;-62
2023/01/08 02:21:06;;;;;;;19.73;6.83;;;;;;;-17.36;100.00;101978.38;1680871;83;21140;-57
2023/01/08 02:24:09;;;;;;;13.60;5.50;;;;;;;-17.38;100.00;101972.50;1686469;84;21045;-57
2023/01/08 02:26:36;;;;;;;16.90;6.67;;;;;;;-17.39;100.00;101980.80;1691283;84;21131;-56
2023/01/08 02:29:13;;;;;;;15.93;6.87;;;;;;;-17.41;100.00;101978.69;1691708;84;21763;-56
2023/01/08 02:31:41;;;;;;;12.88;5.83;;;;;;;-17.42;100.00;101980.34;1690833;84;20909;-56
2023/01/08 02:34:09;;;;;;;12.50;5.35;;;;;;;-17.43;100.00;101984.45;1703127;84;21082;-57
2023/01/08 02:36:44;;;;;;;12.68;5.47;;;;;;;-17.41;100.00;101987.41;1703687;84;21075;-58
2023/01/08 02:39:44;;;;;;;16.27;6.25;;;;;;;-17.43;100.00;101991.93;1703058;83;21013;-58
2023/01/08 02:43:00;;;;;;;15.70;6.65;;;;;;;-17.45;100.00;101997.30;1691699;84;21180;-58
2023/01/08 02:45:41;;;;;;;19.75;6.97;;;;;;;-17.47;100.00;101999.31;1690291;84;21063;-57
2023/01/08 02:48:18;;;;;;;22.75;6.75;;;;;;;-17.48;100.00;101995.98;1685836;84;21015;-61
2023/01/08 02:51:05;;;;;;;15.05;6.12;;;;;;;-17.51;100.00;101993.41;1685491;84;21297;-57
2023/01/08 02:53:36;;;;;;;14.93;5.30;;;;;;;-17.52;100.00;101991.73;1686041;85;21599;-56
2023/01/08 02:56:11;;;;;;;;;;;;;;;-17.51;100.00;101992.16;1687640;85;21908;-56
2023/01/08 02:58:38;;;;;;;17.77;6.30;;;;;;;-17.51;100.00;102000.88;1695489;84;20138;-57
2023/01/08 03:01:08;;;;;;;15.83;6.37;;;;;;;-17.50;100.00;102001.72;1698220;84;20962;-57
2023/01/08 03:03:35;;;;;;;15.83;6.78;;;;;;;-17.51;100.00;102004.62;1698315;84;21079;-61
2023/01/08 03:06:06;;;;;;;16.40;5.83;;;;;;;-17.51;100.00;102007.11;1697933;84;21012;-56
2023/01/08 03:08:38;;;;;;;16.55;8.35;;;;;;;-17.50;100.00;102000.47;1697859;83;21522;-56
2023/01/08 03:11:07;;;;;;;14.65;5.78;;;;;;;-17.48;100.00;102004.70;1698340;84;21512;-56
2023/01/08 03:13:56;;;;;;;15.30;6.05;;;;;;;-17.46;100.00;102013.06;1698623;84;21514;-58
2023/01/08 03:16:29;;;;;;;15.68;6.95;;;;;;;-17.45;100.00;102014.74;1693263;83;20975;-57
2023/01/08 03:19:07;;;;;;;18.15;6.22;;;;;;;-17.44;100.00;102010.19;1684853;85;21146;-56
2023/01/08 03:21:35;;;;;;;18.15;7.40;;;;;;;-17.44;100.00;102011.44;1684013;85;21917;-61
2023/01/08 03:24:02;;;;;;;15.40;7.00;;;;;;;-17.45;100.00;102009.76;1686258;85;21171;-57
2023/01/08 03:26:30;;;;;;;14.98;6.47;;;;;;;-17.46;100.00;102006.84;1686407;84;21068;-57
2023/01/08 03:28:57;;;;;;;18.62;6.97;;;;;;;-17.47;100.00;102015.50;1686086;85;21053;-56
2023/01/08 03:31:26;;;;;;;14.80;6.53;;;;;;;-17.48;100.00;102012.58;1686586;85;20972;-60
2023/01/08 03:33:54;;;;;;;20.95;6.97;;;;;;;-17.47;100.00;102011.36;1685524;85;21256;-59
2023/01/08 03:36:24;;;;;;;15.20;6.33;;;;;;;-17.46;100.00;102010.58;1685935;85;21637;-57
2023/01/08 03:39:02;;;;;;;12.10;4.92;;;;;;;-17.48;100.00;102012.17;1686473;85;21109;-57
2023/01/08 03:41:30;;;;;;;15.45;5.53;;;;;;;-17.49;100.00;102006.76;1685887;85;21001;-60
2023/01/08 03:43:57;;;;;;;14.28;6.28;;;;;;;-17.50;100.00;102010.06;1672197;85;21083;-56
2023/01/08 03:46:32;;;;;;;18.65;6.97;;;;;;;-17.52;100.00;102001.70;1689637;84;21159;-57
2023/01/08 03:49:00;;;;;;;16.27;6.65;;;;;;;-17.51;100.00;102003.37;1693595;84;20965;-61
2023/01/08 03:51:27;;;;;;;18.90;6.83;;;;;;;-17.50;100.00;102007.57;1746279;82;20995;-56
2023/01/08 03:53:57;;;;;;;11.40;5.03;;;;;;;-17.49;100.00;102012.98;1708757;83;22499;-56
2023/01/08 03:56:24;;;;;;;13.83;6.58;;;;;;;-17.50;100.00;102012.93;1747387;82;20983;-59
2023/01/08 03:58:52;;;;;;;12.40;5.45;;;;;;;-17.53;100.00;102009.98;1709879;82;21097;-56
2023/01/08 04:01:20;;;;;;;15.85;5.92;;;;;;;-17.55;100.00;102003.27;1746419;82;20954;-61
2023/01/08 04:03:47;;;;;;;14.40;6.45;;;;;;;-17.61;100.00;102000.24;1699756;83;21360;-58
2023/01/08 04:06:17;;;;;;;13.72;5.87;;;;;;;-17.64;100.00;102001.41;1748461;80;20979;-58
2023/01/08 04:08:49;;;;;;;13.72;6.37;;;;;;;-17.69;100.00;102000.44;1748026;80;20888;-58
2023/01/08 04:11:16;;;;;;;15.72;4.42;;;;;;;-17.70;100.00;102006.23;1708439;83;21578;-63
2023/01/08 04:13:44;;;;;;;18.15;6.55;;;;;;;-17.72;100.00;102004.96;1748039;81;21596;-58
2023/01/08 04:16:11;;;;;;;12.60;6.50;;;;;;;-17.72;100.00;102000.39;1752571;81;21486;-57
2023/01/08 04:18:38;;;;;;;19.12;6.20;;;;;;;-17.74;100.00;102012.78;1752360;81;21549;-58
2023/01/08 04:21:06;;;;;;;18.27;7.75;;;;;;;-17.74;100.00;102013.19;1752628;81;21509;-58
2023/01/08 04:23:33;;;;;;;17.85;7.85;;;;;;;-17.77;100.00;102004.42;1751719;81;21885;-62
2023/01/08 04:26:07;;;;;;;18.57;9.10;;;;;;;-17.81;100.00;102005.99;1752429;80;21014;-58
2023/01/08 04:28:34;;;;;;;19.57;7.78;;;;;;;-17.82;100.00;102006.80;1748791;80;21081;-58
2023/01/08 04:31:06;;;;;;;18.60;8.23;;;;;;;-17.83;100.00;102015.09;1708896;83;20910;-58
2023/01/08 04:33:34;;;;;;;22.13;9.90;;;;;;;-17.85;100.00;102013.35;1746919;82;21122;-57
2023/01/08 04:36:02;;;;;;;18.73;8.50;;;;;;;-17.84;100.00;102015.03;1709087;83;21130;-58
2023/01/08 04:38:30;;;;;;;18.65;8.53;;;;;;;-17.84;100.00;102015.03;1747212;82;20967;-57
2023/01/08 04:41:01;;;;;;;25.48;8.25;;;;;;;-17.85;100.00;102017.09;1709062;83;21056;-61
2023/01/08 04:43:28;;;;;;;17.07;6.53;;;;;;;-17.83;100.00;102020.48;1746738;82;20988;-61
2023/01/08 04:46:00;;;;;;;15.93;5.92;;;;;;;-17.84;100.00;102021.25;1708723;82;21119;-58
2023/01/08 04:48:28;;;;;;;14.00;6.75;;;;;;;-17.85;100.00;102024.16;1738319;80;21276;-57
2023/01/08 04:50:58;;;;;;;17.07;6.33;;;;;;;-17.86;100.00;102025.38;1708637;83;21004;-62
2023/01/08 04:53:26;;;;;;;15.75;7.67;;;;;;;-17.90;100.00;102029.43;1708532;83;22501;-57
2023/01/08 04:55:53;;;;;;;17.12;6.10;;;;;;;-17.93;100.00;102030.19;1709015;83;21321;-57
2023/01/08 04:58:22;;;;;;;19.45;8.13;;;;;;;-17.96;100.00;102030.09;1709183;83;20967;-57
2023/01/08 05:00:51;;;;;;;12.95;5.75;;;;;;;-17.98;100.00;102025.91;1709376;83;22337;-62
2023/01/08 05:03:18;;;;;;;14.73;7.17;;;;;;;-17.99;100.00;102025.06;1707746;83;20987;-58
2023/01/08 05:05:47;;;;;;;17.92;6.83;;;;;;;-18.02;100.00;102021.25;1714385;81;20941;-57
2023/01/08 05:08:16;;;;;;;19.35;8.10;;;;;;;-18.01;100.00;102025.81;1752333;80;21035;-58
2023/01/08 05:10:44;;;;;;;16.82;8.15;;;;;;;-18.04;100.00;102026.57;1752384;81;21062;-57
2023/01/08 05:13:11;;;;;;;17.67;7.47;;;;;;;-18.03;100.00;102029.52;1746019;81;22437;-61
2023/01/08 05:15:39;;;;;;;14.85;6.25;;;;;;;-18.03;100.00;102029.52;1741664;82;21054;-57
2023/01/08 05:18:06;;;;;;;19.90;6.20;;;;;;;-18.03;100.00;102040.73;1741734;82;21087;-58
2023/01/08 05:20:34;;;;;;;17.60;6.30;;;;;;;-18.03;100.00;102034.50;1741686;82;21135;-57
2023/01/08 05:23:01;;;;;;;16.55;7.12;;;;;;;-18.02;100.00;102042.41;1746621;81;20920;-61
2023/01/08 05:25:28;;;;;;;22.17;6.85;;;;;;;-18.01;100.00;102041.59;1751839;81;21274;-58
2023/01/08 05:27:56;;;;;;;26.12;8.75;;;;;;;-17.98;100.00;102050.80;1752339;81;20951;-58
2023/01/08 05:30:24;;;;;;;16.70;7.17;;;;;;;-17.94;100.00;102048.83;1752489;81;20979;-58
2023/01/08 05:32:52;;;;;;;17.30;6.87;;;;;;;-17.84;100.00;102055.71;1752335;81;21258;-61
2023/01/08 05:35:20;;;;;;;21.10;7.75;;;;;;;-17.69;100.00;102052.74;1750995;81;21496;-58
2023/01/08 05:37:48;;;;;;;17.80;7.53;;;;;;;-17.52;100.00;102056.52;1752436;81;21252;-57
2023/01/08 05:40:15;;;;;;;18.92;6.83;;;;;;;-17.30;100.00;102052.05;1749881;81;20924;-58
2023/01/08 05:42:43;;;;;;;20.85;7.50;;;;;;;-17.08;100.00;102051.75;1740436;80;20908;-57
2023/01/08 05:45:10;;;;;;;18.98;7.90;;;;;;;-16.81;100.00;102060.66;1747227;82;21261;-60
2023/01/08 05:47:38;;;;;;;14.83;6.47;;;;;;;-16.47;100.00;102059.28;1746779;82;21068;-56
2023/01/08 05:50:07;;;;;;;19.62;7.90;;;;;;;-16.12;100.00;102056.63;1747440;82;22423;-56
2023/01/08 05:52:34;;;;;;;22.02;8.25;;;;;;;-15.77;100.00;102052.27;1747423;81;22356;-57
2023/01/08 05:55:01;;;;;;;17.70;6.87;;;;;;;-15.39;100.00;102057.05;1747287;81;21006;-57
2023/01/08 05:57:29;;;;;;;19.27;7.53;;;;;;;-15.05;100.00;102058.83;1746756;81;21023;-57
2023/01/08 05:59:56;;;;;;;18.95;8.48;;;;;;;-14.75;100.00;102059.27;1752433;81;21537;-57
2023/01/08 06:02:24;;;;;;;18.92;7.22;;;;;;;-14.43;100.00;102056.72;1752329;81;22361;-57
2023/01/08 06:04:52;;;;;;;16.60;6.83;;;;;;;-14.13;100.00;102065.84;1747184;80;21042;-58
2023/01/08 06:07:19;;;;;;;15.78;7.58;;;;;;;-13.85;100.00;102066.17;1708053;83;21165;-62
2023/01/08 06:09:48;;;;;;;14.60;6.70;;;;;;;-13.47;100.00;102066.95;1747033;82;21106;-58
2023/01/08 06:12:15;;;;;;;17.65;7.45;;;;;;;-13.13;100.00;102070.55;1680390;85;20965;-57
2023/01/08 06:14:44;;;;;;;18.82;7.70;;;;;;;-12.87;100.00;102070.31;1717424;83;21233;-57
2023/01/08 06:17:13;;;;;;;17.65;8.18;;;;;;;-12.62;100.00;102072.95;1679622;85;21025;-62
2023/01/08 06:19:41;;;;;;;15.05;7.20;;;;;;;-12.39;100.00;102066.80;1717518;83;21656;-57
2023/01/08 06:22:08;;;;;;;16.40;8.28;;;;;;;-12.14;100.00;102067.33;1680363;85;21062;-58
2023/01/08 06:24:36;;;;;;;17.62;7.25;;;;;;;-11.87;100.00;102071.59;1717632;83;21086;-58
2023/01/08 06:27:04;;;;;;;17.80;8.68;;;;;;;-11.53;100.00;102071.20;1680131;85;21148;-61
2023/01/08 06:29:31;;;;;;;17.95;7.70;;;;;;;-11.35;100.00;102074.59;1716788;83;22289;-58
2023/01/08 06:31:59;;;;;;;17.05;7.67;;;;;;;-11.15;100.00;102075.84;1680420;85;21004;-58
2023/01/08 06:34:27;;;;;;;15.00;7.80;;;;;;;-10.90;100.00;102062.39;1717409;82;21488;-60
2023/01/08 06:36:56;;;;;;;17.45;8.23;;;;;;;-10.76;100.00;102069.91;1680440;84;20974;-63
2023/01/08 06:39:23;;;;;;;20.82;7.50;;;;;;;-10.58;100.00;102067.78;1716493;83;22534;-57
2023/01/08 06:41:52;;;;;;;18.95;9.08;;;;;;;-10.28;100.00;102052.97;1680359;84;21068;-57
2023/01/08 06:44:20;;;;;;;20.92;8.23;;;;;;;-10.11;100.00;102081.46;1717358;83;20935;-60
2023/01/08 06:46:47;;;;;;;16.27;8.98;;;;;;;-9.96;100.00;102075.91;1717197;83;21372;-57
2023/01/08 06:49:16;;;;;;;20.12;8.38;;;;;;;-9.83;100.00;102082.58;1679021;85;21621;-62
2023/01/08 06:51:44;;;;;;;18.10;8.43;;;;;;;-9.72;100.00;102088.84;1717445;83;22442;-60
2023/01/08 06:54:11;;;;;;;18.23;8.55;;;;;;;-9.67;100.00;102090.47;1685296;83;21328;-58
2023/01/08 06:56:38;;;;;;;18.98;9.25;;;;;;;-9.55;100.00;102092.91;1709195;83;20985;-60
2023/01/08 06:59:06;;;;;;;18.65;9.20;;;;;;;-9.37;100.00;102098.27;1743057;82;20936;-63
2023/01/08 07:01:35;;;;;;;20.45;8.55;;;;;;;-9.40;100.00;102097.02;1745415;81;21081;-58
2023/01/08 07:04:02;;;;;;;17.57;9.23;;;;;;;-9.27;100.00;102094.00;1752390;81;21963;-58
2023/01/08 07:06:30;;;;;;;24.95;10.63;;;;;;;-9.05;100.00;102094.67;1752141;81;21040;-58
2023/01/08 07:08:57;;;;;;;16.35;8.08;;;;;;;-8.96;100.00;102093.75;1752486;81;21038;-66
2023/01/08 07:11:25;;;;;;;21.93;10.18;;;;;;;-8.64;100.00;102096.80;1751512;81;20931;-60
2023/01/08 07:13:52;;;;;;;16.65;9.00;;;;;;;-8.35;100.00;102095.20;1752259;81;21005;-59
2023/01/08 07:16:19;;;;;;;17.23;8.38;;;;;;;-8.16;100.00;102092.46;1752163;81;21151;-61
2023/01/08 07:18:47;;;;;;;17.02;8.63;;;;;;;-8.17;100.00;102094.16;1750519;80;20896;-62
2023/01/08 07:21:16;;;;;;;15.18;8.73;;;;;;;-8.38;100.00;102096.53;1683456;82;20973;-65
2023/01/08 07:24:04;;;;;;;23.55;10.30;;;;;;;-8.32;100.00;102099.40;1669059;85;21498;-61
2023/01/08 07:26:31;;;;;;;18.17;9.05;;;;;;;-8.15;100.00;102098.75;1624024;86;21018;-66
2023/01/08 07:28:59;;;;;;;18.80;10.28;;;;;;;-8.04;100.00;102097.37;1636573;86;21248;-64
2023/01/08 07:31:26;;;;;;;18.25;9.50;;;;;;;-7.84;100.00;102106.83;1642177;87;21083;-62
2023/01/08 07:33:55;;;;;;;17.15;9.98;;;;;;;-7.69;100.00;102116.31;1644491;87;21018;-62
2023/01/08 07:36:23;;;;;;;17.23;9.73;;;;;;;-7.61;100.00;102111.58;1644402;87;20970;-62
2023/01/08 07:38:50;;;;;;;18.23;10.15;;;;;;;-7.30;100.00;102113.66;1644204;87;21071;-64
2023/01/08 07:41:17;;;;;;;26.45;11.53;;;;;;;-7.11;100.00;102114.22;1643550;85;21181;-63
2023/01/08 07:43:49;;;;;;;18.50;10.28;;;;;;;-7.08;100.00;102119.65;1644352;87;21180;-62
2023/01/08 07:46:16;;;;;;;18.25;10.05;;;;;;;-7.05;100.00;102118.34;1644470;86;21656;-62
2023/01/08 07:48:44;;;;;;;20.80;9.65;;;;;;;-6.99;100.00;102113.18;1642341;86;21454;-69
2023/01/08 07:51:11;;;;;;;18.65;9.83;;;;;;;-7.10;100.00;102109.11;1617698;87;20994;-63
2023/01/08 07:53:39;;;;;;;28.57;13.93;;;;;;;-6.93;100.00;102100.38;1617900;87;22967;-64
2023/01/08 07:56:07;;;;;;;21.80;10.25;;;;;;;-6.58;100.00;102097.69;1617661;87;21104;-61
2023/01/08 07:58:35;;;;;;;22.00;12.03;;;;;;;-6.42;98.29;102111.75;1617835;87;21158;-62
2023/01/08 08:01:05;;;;;;;23.92;11.57;;;;;;;-6.58;93.83;102110.38;1617123;87;21255;-63
2023/01/08 08:03:32;;;;;;;19.87;9.65;;;;;;;-6.74;89.59;102115.72;1617315;88;21125;-62
2023/01/08 08:06:01;;;;;;;20.80;9.85;;;;;;;-6.92;86.61;102117.30;1617901;88;21028;-62
2023/01/08 08:08:29;;;;;;;17.67;8.88;;;;;;;-7.17;85.96;102119.37;1617765;88;21552;-62
2023/01/08 08:10:56;;;;;;;18.92;9.88;;;;;;;-7.40;84.88;102118.45;1618082;88;21031;-67
2023/01/08 08:13:24;;;;;;;19.25;9.95;;;;;;;-7.46;88.17;102113.46;1616916;88;21491;-61
2023/01/08 08:15:51;;;;;;;19.30;9.08;;;;;;;-7.41;90.08;102121.85;1617694;87;22558;-61
2023/01/08 08:18:18;;;;;;;20.05;9.40;;;;;;;-7.55;88.05;102122.47;1616842;87;21785;-61
2023/01/08 08:20:46;;;;;;;19.00;8.45;;;;;;;-7.86;85.61;102135.54;1616424;87;22460;-65
2023/01/08 08:23:14;;;;;;;19.57;9.73;;;;;;;-7.95;88.45;102121.75;1617450;88;21476;-62
2023/01/08 08:25:41;;;;;;;21.12;11.12;;;;;;;-8.01;90.46;102122.64;1613529;87;21015;-61
2023/01/08 08:28:10;;;;;;;18.80;10.08;;;;;;;-7.95;93.78;102123.84;1611019;89;21647;-60
2023/01/08 08:30:38;;;;;;;15.70;9.60;;;;;;;-7.82;92.91;102122.42;1610811;87;21651;-60
2023/01/08 08:33:06;;;;;;;18.67;9.78;;;;;;;-7.85;92.51;102122.84;1614161;87;20955;-62
2023/01/08 08:35:34;;;;;;;19.37;9.68;;;;;;;-8.02;91.11;102115.08;1580718;90;21646;-60
2023/01/08 08:38:02;;;;;;;18.42;9.45;;;;;;;-8.00;94.67;102112.09;1581365;89;21146;-60
2023/01/08 08:40:30;;;;;;;21.02;10.40;;;;;;;-7.94;99.11;102101.47;1570872;90;21087;-59
2023/01/08 08:43:00;;;;;;;20.62;10.05;;;;;;;-7.69;100.00;102093.12;1581071;90;21606;-71
2023/01/08 08:45:28;;;;;;;18.90;10.35;;;;;;;-7.37;99.78;102098.15;1555605;90;22475;-66
2023/01/08 08:47:56;;;;;;;18.32;9.38;;;;;;;-7.39;93.77;102095.63;1582561;90;21109;-59
2023/01/08 08:50:24;;;;;;;18.52;10.15;;;;;;;-7.70;89.59;102106.62;1589204;90;21106;-59
2023/01/08 08:52:56;;;;;;;18.35;9.33;;;;;;;-8.08;90.55;102097.83;1582656;90;21026;-59
2023/01/08 08:55:23;;;;;;;16.60;8.85;;;;;;;-8.04;94.12;102097.80;1582104;89;21857;-65
2023/01/08 08:57:51;;;;;;;19.85;10.25;;;;;;;-8.08;94.88;102099.09;1582624;90;21113;-59
2023/01/08 09:00:19;;;;;;;21.75;10.20;;;;;;;-8.10;97.06;102091.97;1582730;90;21011;-60
2023/01/08 09:02:51;;;;;;;17.82;8.93;;;;;;;-8.02;100.00;102090.61;1589514;90;21031;-59
2023/01/08 09:05:18;;;;;;;16.95;9.10;;;;;;;-7.93;100.00;102093.44;1537849;92;21057;-63
2023/01/08 09:07:45;;;;;;;21.05;11.43;;;;;;;-8.03;99.70;102091.88;1589545;90;21147;-61
2023/01/08 09:10:14;;;;;;;19.67;10.58;;;;;;;-8.11;98.77;102089.44;1582607;89;20995;-60
2023/01/08 09:12:42;;;;;;;21.52;9.43;;;;;;;-8.03;100.00;102081.35;1589601;89;20977;-60
2023/01/08 09:15:11;;;;;;;22.30;11.10;;;;;;;-7.88;100.00;102077.75;1556509;92;21082;-74
2023/01/08 09:17:38;;;;;;;20.10;9.38;;;;;;;-7.79;100.00;102078.08;1582442;90;21137;-61
2023/01/08 09:20:06;;;;;;;17.98;8.63;;;;;;;-7.80;100.00;102073.85;1589317;90;21356;-61
2023/01/08 09:22:34;;;;;;;21.97;9.63;;;;;;;-7.79;99.53;102073.02;1556803;91;21460;-61
2023/01/08 09:25:01;;;;;;;18.82;9.78;;;;;;;-7.83;100.00;102078.55;1567761;90;21206;-70
2023/01/08 09:27:29;;;;;;;18.55;9.23;;;;;;;-7.55;100.00;102066.76;1628916;87;20970;-63
2023/01/08 09:29:56;;;;;;;19.85;9.68;;;;;;;-7.19;100.00;102059.86;1629972;87;21033;-60
2023/01/08 09:32:23;;;;;;;18.32;9.30;;;;;;;-6.89;100.00;102052.16;1629732;87;21166;-60
2023/01/08 09:34:50;;;;;;;23.52;11.12;;;;;;;-6.95;96.59;102051.42;1629772;87;20903;-59
2023/01/08 09:37:18;;;;;;;17.75;9.65;;;;;;;-7.02;96.22;102054.92;1629057;87;21022;-72
2023/01/08 09:39:45;;;;;;;16.70;9.25;;;;;;;-7.11;93.75;102055.49;1629975;87;20990;-60
2023/01/08 09:42:12;;;;;;;16.77;8.65;;;;;;;-7.18;93.89;102051.39;1629983;87;21034;-60
2023/01/08 09:44:42;;;;;;;20.80;9.40;;;;;;;-7.17;91.97;102047.98;1630140;87;21396;-61
2023/01/08 09:47:30;;;;;;;15.90;7.87;;;;;;;-7.33;89.97;102047.84;1629329;87;21069;-72
2023/01/08 09:50:00;;;;;;;16.97;7.75;;;;;;;-7.20;92.04;102048.03;1620023;87;21094;-59
2023/01/08 09:52:28;;;;;;;16.07;8.65;;;;;;;-7.17;90.18;102045.45;1627971;87;21038;-61
2023/01/08 09:54:55;;;;;;;14.83;7.25;;;;;;;-7.23;88.32;102044.30;1587921;89;21549;-73
2023/01/08 09:57:23;;;;;;;14.10;7.65;;;;;;;-7.37;86.82;102045.78;1633574;86;21310;-62
2023/01/08 09:59:50;;;;;;;14.25;7.85;;;;;;;-7.43;87.74;102049.66;1648426;86;20997;-61
2023/01/08 10:02:21;;;;;;;14.55;7.17;;;;;;;-7.52;86.51;102045.19;1633308;86;21031;-61
2023/01/08 10:04:59;;;;;;;14.25;6.58;;;;;;;-7.52;90.13;102047.72;1628283;87;21076;-73
2023/01/08 10:07:27;;;;;;;20.70;11.48;;;;;;;-7.17;98.36;102035.75;1628152;87;21105;-64
2023/01/08 10:09:55;;;;;;;13.98;8.38;;;;;;;-6.76;97.12;102036.28;1626292;87;21520;-64
2023/01/08 10:12:30;;;;;;;21.37;8.88;;;;;;;-6.66;91.06;102032.72;1593239;88;21553;-60
2023/01/08 10:15:02;;;;;;;17.57;8.78;;;;;;;-6.51;94.29;102035.83;1628719;86;20975;-62
2023/01/08 10:17:45;;;;;;;15.63;7.55;;;;;;;-6.33;87.51;102028.27;1633119;86;21197;-64
2023/01/08 10:20:20;;;;;;;14.65;6.87;;;;;;;-6.50;83.64;102033.25;1606367;86;21564;-62
2023/01/08 10:22:48;;;;;;;15.72;7.65;;;;;;;-6.67;79.97;102023.41;1634592;86;22505;-63
2023/01/08 10:25:18;;;;;;;20.25;9.80;;;;;;;-6.65;84.09;102026.77;1631084;86;21087;-64
2023/01/08 10:28:01;;;;;;;18.55;9.08;;;;;;;-6.43;86.61;102025.09;1594119;88;21015;-63
2023/01/08 10:30:33;;;;;;;13.65;7.20;;;;;;;-6.25;88.31;102025.99;1636408;87;20971;-63
2023/01/08 10:33:07;;;;;;;19.23;9.68;;;;;;;-6.35;78.94;102019.43;1639428;87;21103;-62
2023/01/08 10:35:37;;;;;;;17.20;7.45;;;;;;;-6.69;76.51;102018.83;1639827;86;21472;-62
2023/01/08 10:38:06;;;;;;;11.90;6.35;;;;;;;-6.95;77.50;102021.01;1592122;88;21050;-74
2023/01/08 10:40:42;;;;;;;12.73;6.62;;;;;;;-6.97;79.93;102019.78;1639584;87;21115;-64
2023/01/08 10:43:18;;;;;;;17.45;7.22;;;;;;;-6.91;81.04;102020.92;1590393;90;21090;-63
2023/01/08 10:46:00;;;;;;;12.63;6.60;;;;;;;-6.93;80.58;102021.39;1630601;87;21074;-74
2023/01/08 10:48:32;;;;;;;14.13;7.10;;;;;;;-7.06;80.25;102026.27;1593089;90;21540;-61
2023/01/08 10:51:22;;;;;;;15.78;5.75;;;;;;;-7.26;79.52;102012.67;1592315;89;21050;-61
2023/01/08 10:53:51;;;;;;;17.82;7.55;;;;;;;-7.44;80.62;102007.91;1592499;89;21845;-62
2023/01/08 10:56:24;;;;;;;13.53;7.05;;;;;;;-7.62;80.96;102013.66;1639599;87;21002;-62
2023/01/08 11:01:08;;;;;;;12.60;6.60;;;;;;;-7.93;86.88;102018.61;103107;1282;600463;-61
2023/01/08 11:03:36;;;;;;;13.50;6.60;;;;;;;-8.11;88.56;102024.25;104987;1267;61828;-65
2023/01/08 11:06:16;;;;;;;16.50;7.60;;;;;;;-8.22;92.67;102030.80;104795;1267;62599;-62
2023/01/08 11:08:51;;;;;;;14.90;7.30;;;;;;;-8.22;96.01;102030.98;104593;1267;74647;-62
2023/01/08 11:11:18;;;;;;;13.20;6.90;;;;;;;-8.34;96.74;102032.15;105026;1267;69968;-71
2023/01/08 11:13:59;;;;;;;12.10;5.20;;;;;;;-8.54;98.81;102030.55;104359;1270;192448;-62
2023/01/08 11:16:35;;;;;;;13.40;6.70;;;;;;;-8.69;100.00;102028.36;105264;1255;63875;-62
2023/01/08 11:19:03;;;;;;;10.60;5.10;;;;;;;-8.79;100.00;102021.89;105722;1254;62831;-62
2023/01/08 11:21:30;;;;;;;12.80;5.50;;;;;;;-8.83;100.00;102020.94;105598;1259;73795;-61